Time,TemperatureF,DewpointF,PressureIn,WindDirection,WindDirectionDegrees,WindSpeedMPH,WindSpeedGustMPH,Humidity,HourlyPrecipIn,Conditions,Clouds,dailyrainin,SoftwareType,DateUTC
2013-02-06 00:07:00,48.7,42.8,30.03,North,0,0.0,-999.0,80,0.00,,,0.00,open2300 v1.10,2013-02-06 08:07:00,
2013-02-06 00:21:00,48.6,42.6,30.02,North,0,0.0,-999.0,80,0.00,,,0.00,open2300 v1.10,2013-02-06 08:21:00,
2013-02-06 00:36:00,48.6,42.3,30.03,North,0,0.0,-999.0,79,0.00,,,0.00,open2300 v1.10,2013-02-06 08:36:00,
2013-02-06 00:51:00,48.6,42.3,30.02,North,0,0.0,-999.0,79,0.00,,,0.00,open2300 v1.10,2013-02-06 08:51:00,
2013-02-06 01:07:00,48.7,42.1,30.02,North,0,0.0,-999.0,78,0.00,,,0.00,open2300 v1.10,2013-02-06 09:07:00,
2013-02-06 01:21:00,48.7,41.8,30.01,North,0,0.0,-999.0,77,0.00,,,0.00,open2300 v1.10,2013-02-06 09:21:00,
2013-02-06 01:36:00,48.7,41.8,30.02,North,0,0.0,-999.0,77,0.00,,,0.00,open2300 v1.10,2013-02-06 09:36:00,
2013-02-06 01:51:00,48.7,41.8,30.02,North,0,0.0,-999.0,77,0.00,,,0.00,open2300 v1.10,2013-02-06 09:51:00,
2013-02-06 02:07:00,48.6,41.6,30.02,North,0,0.0,-999.0,77,0.00,,,0.00,open2300 v1.10,2013-02-06 10:07:00,
2013-02-06 02:21:00,48.4,41.1,30.02,North,0,0.0,-999.0,76,0.00,,,0.00,open2300 v1.10,2013-02-06 10:21:00,
2013-02-06 02:36:00,48.2,40.9,30.02,North,0,0.0,-999.0,76,0.00,,,0.00,open2300 v1.10,2013-02-06 10:36:00,
2013-02-06 02:51:00,48.0,41.1,30.01,North,0,0.0,-999.0,77,0.00,,,0.00,open2300 v1.10,2013-02-06 10:51:00,
2013-02-06 03:07:00,48.0,41.1,30.01,North,0,0.0,-999.0,77,0.00,,,0.00,open2300 v1.10,2013-02-06 11:07:00,
2013-02-06 03:21:00,47.8,40.9,30.02,North,0,0.0,-999.0,77,0.00,,,0.00,open2300 v1.10,2013-02-06 11:21:00,
2013-02-06 03:36:00,47.5,40.6,30.02,North,0,0.0,-999.0,77,0.00,,,0.00,open2300 v1.10,2013-02-06 11:36:00,
2013-02-06 03:51:00,47.3,40.4,30.02,North,0,0.0,-999.0,77,0.00,,,0.00,open2300 v1.10,2013-02-06 11:51:00,
2013-02-06 04:07:00,47.1,40.3,30.02,North,0,0.0,-999.0,77,0.00,,,0.00,open2300 v1.10,2013-02-06 12:07:00,
2013-02-06 04:21:00,47.1,40.3,30.02,North,0,0.0,-999.0,77,0.00,,,0.00,open2300 v1.10,2013-02-06 12:21:00,
2013-02-06 04:36:00,46.9,40.1,30.04,North,0,0.0,-999.0,77,0.00,,,0.00,open2300 v1.10,2013-02-06 12:36:00,
2013-02-06 04:51:00,46.9,40.1,30.03,North,0,0.0,-999.0,77,0.00,,,0.00,open2300 v1.10,2013-02-06 12:51:00,
2013-02-06 05:07:00,46.9,40.1,30.03,North,0,0.0,-999.0,77,0.00,,,0.00,open2300 v1.10,2013-02-06 13:07:00,
2013-02-06 05:21:00,46.8,39.9,30.03,North,0,0.0,-999.0,77,0.00,,,0.00,open2300 v1.10,2013-02-06 13:21:00,
2013-02-06 05:36:00,46.6,39.8,30.04,North,0,0.0,-999.0,77,0.00,,,0.00,open2300 v1.10,2013-02-06 13:36:00,
2013-02-06 05:51:00,46.6,39.8,30.04,North,0,0.0,-999.0,77,0.00,,,0.00,open2300 v1.10,2013-02-06 13:51:00,
2013-02-06 06:07:00,46.2,39.8,30.04,North,0,0.0,-999.0,78,0.00,,,0.00,open2300 v1.10,2013-02-06 14:07:00,
2013-02-06 06:21:00,46.2,39.8,30.04,North,0,0.0,-999.0,78,0.00,,,0.00,open2300 v1.10,2013-02-06 14:21:00,
2013-02-06 06:36:00,46.2,39.8,30.05,North,0,0.0,-999.0,78,0.00,,,0.00,open2300 v1.10,2013-02-06 14:36:00,
2013-02-06 06:51:00,46.0,39.6,30.05,North,0,0.0,-999.0,78,0.00,,,0.00,open2300 v1.10,2013-02-06 14:51:00,
2013-02-06 07:06:00,46.0,39.6,30.05,North,0,0.0,-999.0,78,0.00,,,0.00,open2300 v1.10,2013-02-06 15:06:00,
2013-02-06 07:21:00,46.0,39.6,30.05,North,0,0.0,-999.0,78,0.00,,,0.00,open2300 v1.10,2013-02-06 15:21:00,
2013-02-06 07:36:00,46.2,39.8,30.06,North,0,0.0,-999.0,78,0.00,,,0.00,open2300 v1.10,2013-02-06 15:36:00,
2013-02-06 07:51:00,46.2,39.8,30.07,North,0,0.0,-999.0,78,0.00,,,0.00,open2300 v1.10,2013-02-06 15:51:00,
2013-02-06 08:06:00,46.8,40.3,30.07,North,0,0.0,-999.0,78,0.00,,,0.00,open2300 v1.10,2013-02-06 16:06:00,
2013-02-06 08:21:00,46.9,40.4,30.07,North,0,0.0,-999.0,78,0.00,,,0.00,open2300 v1.10,2013-02-06 16:21:00,
2013-02-06 08:36:00,47.3,40.8,30.07,North,0,0.0,-999.0,78,0.00,,,0.00,open2300 v1.10,2013-02-06 16:36:00,
2013-02-06 08:51:00,47.8,41.2,30.08,North,0,0.0,-999.0,78,0.00,,,0.00,open2300 v1.10,2013-02-06 16:51:00,
2013-02-06 09:06:00,48.4,41.8,30.08,North,0,0.0,-999.0,78,0.00,,,0.00,open2300 v1.10,2013-02-06 17:06:00,
2013-02-06 09:21:00,48.7,42.1,30.09,North,0,0.0,-999.0,78,0.00,,,0.00,open2300 v1.10,2013-02-06 17:21:00,
2013-02-06 09:36:00,48.9,42.3,30.08,North,0,0.0,-999.0,78,0.00,,,0.00,open2300 v1.10,2013-02-06 17:36:00,
2013-02-06 09:51:00,49.1,42.5,30.08,North,0,0.0,-999.0,78,0.00,,,0.00,open2300 v1.10,2013-02-06 17:51:00,
2013-02-06 10:06:00,49.6,43.0,30.09,North,0,0.0,-999.0,78,0.00,,,0.00,open2300 v1.10,2013-02-06 18:06:00,
2013-02-06 10:21:00,49.8,43.2,30.09,North,0,0.0,-999.0,78,0.00,,,0.00,open2300 v1.10,2013-02-06 18:21:00,
2013-02-06 10:36:00,50.2,43.6,30.09,North,0,0.0,-999.0,78,0.00,,,0.00,open2300 v1.10,2013-02-06 18:36:00,
2013-02-06 10:51:00,50.5,43.9,30.08,North,0,0.0,-999.0,78,0.00,,,0.00,open2300 v1.10,2013-02-06 18:51:00,
2013-02-06 11:06:00,50.9,44.3,30.08,North,0,0.0,-999.0,78,0.00,,,0.00,open2300 v1.10,2013-02-06 19:06:00,
2013-02-06 11:21:00,51.1,44.5,30.08,North,0,0.0,-999.0,78,0.00,,,0.00,open2300 v1.10,2013-02-06 19:21:00,
2013-02-06 11:36:00,51.4,44.8,30.07,North,0,0.0,-999.0,78,0.00,,,0.00,open2300 v1.10,2013-02-06 19:36:00,
2013-02-06 11:51:00,51.8,44.8,30.06,North,0,0.0,-999.0,77,0.00,,,0.00,open2300 v1.10,2013-02-06 19:51:00,
2013-02-06 12:06:00,52.0,45.0,30.06,North,0,0.0,-999.0,77,0.00,,,0.00,open2300 v1.10,2013-02-06 20:06:00,
2013-02-06 12:21:00,52.3,45.4,30.06,North,0,0.0,-999.0,77,0.00,,,0.00,open2300 v1.10,2013-02-06 20:21:00,
2013-02-06 12:36:00,52.7,45.7,30.06,North,0,0.0,-999.0,77,0.00,,,0.00,open2300 v1.10,2013-02-06 20:36:00,
2013-02-06 12:51:00,52.9,45.9,30.05,North,0,0.0,-999.0,77,0.00,,,0.00,open2300 v1.10,2013-02-06 20:51:00,
2013-02-06 13:06:00,53.4,45.7,30.05,North,0,0.0,-999.0,75,0.00,,,0.00,open2300 v1.10,2013-02-06 21:06:00,
2013-02-06 13:21:00,53.4,44.6,30.04,North,0,0.0,-999.0,72,0.00,,,0.00,open2300 v1.10,2013-02-06 21:21:00,
2013-02-06 13:36:00,53.8,44.9,30.03,North,0,0.0,-999.0,72,0.00,,,0.00,open2300 v1.10,2013-02-06 21:36:00,
2013-02-06 13:51:00,54.1,44.9,30.03,North,0,0.0,-999.0,71,0.00,,,0.00,open2300 v1.10,2013-02-06 21:51:00,
2013-02-06 14:06:00,54.1,44.9,30.03,North,0,0.0,-999.0,71,0.00,,,0.00,open2300 v1.10,2013-02-06 22:06:00,
2013-02-06 14:21:00,53.8,44.6,30.02,North,0,0.0,-999.0,71,0.00,,,0.00,open2300 v1.10,2013-02-06 22:21:00,
2013-02-06 14:36:00,53.8,44.9,30.02,North,0,0.0,-999.0,72,0.00,,,0.00,open2300 v1.10,2013-02-06 22:36:00,
2013-02-06 14:51:00,53.8,44.9,30.03,North,0,0.0,-999.0,72,0.00,,,0.00,open2300 v1.10,2013-02-06 22:51:00,
2013-02-06 15:06:00,53.4,45.0,30.02,North,0,0.0,-999.0,73,0.00,,,0.00,open2300 v1.10,2013-02-06 23:06:00,
2013-02-06 15:21:00,53.2,44.8,30.02,North,0,0.0,-999.0,73,0.00,,,0.00,open2300 v1.10,2013-02-06 23:21:00,
2013-02-06 15:36:00,53.2,44.8,30.02,North,0,0.0,-999.0,73,0.00,,,0.00,open2300 v1.10,2013-02-06 23:36:00,
2013-02-06 15:51:00,53.4,45.0,30.02,North,0,0.0,-999.0,73,0.00,,,0.00,open2300 v1.10,2013-02-06 23:51:00,
2013-02-06 16:06:00,53.8,44.9,30.03,North,0,0.0,-999.0,72,0.00,,,0.00,open2300 v1.10,2013-02-07 00:06:00,
2013-02-06 16:21:00,53.4,45.0,30.03,North,0,0.0,-999.0,73,0.00,,,0.00,open2300 v1.10,2013-02-07 00:21:00,
2013-02-06 16:36:00,53.4,45.0,30.03,North,0,0.0,-999.0,73,0.00,,,0.00,open2300 v1.10,2013-02-07 00:36:00,
2013-02-06 16:51:00,53.6,45.1,30.03,North,0,0.0,-999.0,73,0.00,,,0.00,open2300 v1.10,2013-02-07 00:51:00,
2013-02-06 17:06:00,53.4,45.0,30.03,North,0,0.0,-999.0,73,0.00,,,0.00,open2300 v1.10,2013-02-07 01:06:00,
2013-02-06 17:21:00,53.2,44.8,30.03,North,0,0.0,-999.0,73,0.00,,,0.00,open2300 v1.10,2013-02-07 01:21:00,
2013-02-06 17:36:00,52.3,44.0,30.03,North,0,0.0,-999.0,73,0.00,,,0.00,open2300 v1.10,2013-02-07 01:36:00,
2013-02-06 17:51:00,51.6,43.3,30.03,North,0,0.0,-999.0,73,0.00,,,0.00,open2300 v1.10,2013-02-07 01:51:00,
2013-02-06 18:06:00,51.1,43.4,30.03,North,0,0.0,-999.0,75,0.00,,,0.00,open2300 v1.10,2013-02-07 02:06:00,
2013-02-06 18:21:00,50.7,43.1,30.03,North,0,0.0,-999.0,75,0.00,,,0.00,open2300 v1.10,2013-02-07 02:21:00,
2013-02-06 18:36:00,50.5,43.2,30.04,North,0,0.0,-999.0,76,0.00,,,0.00,open2300 v1.10,2013-02-07 02:36:00,
2013-02-06 18:51:00,50.2,43.2,30.03,North,0,0.0,-999.0,77,0.00,,,0.00,open2300 v1.10,2013-02-07 02:51:00,
2013-02-06 19:06:00,50.2,43.2,30.03,North,0,0.0,-999.0,77,0.00,,,0.00,open2300 v1.10,2013-02-07 03:06:00,
2013-02-06 19:21:00,49.8,43.2,30.04,North,0,0.0,-999.0,78,0.00,,,0.00,open2300 v1.10,2013-02-07 03:21:00,
2013-02-06 19:36:00,49.8,43.5,30.04,North,0,0.0,-999.0,79,0.00,,,0.00,open2300 v1.10,2013-02-07 03:36:00,
2013-02-06 19:51:00,49.8,43.9,30.04,North,0,0.0,-999.0,80,0.00,,,0.00,open2300 v1.10,2013-02-07 03:51:00,
2013-02-06 20:06:00,49.6,43.7,30.04,North,0,0.0,-999.0,80,0.00,,,0.00,open2300 v1.10,2013-02-07 04:06:00,
2013-02-06 20:21:00,49.3,43.3,30.04,North,0,0.0,-999.0,80,0.00,,,0.00,open2300 v1.10,2013-02-07 04:21:00,
2013-02-06 20:36:00,49.3,43.7,30.04,North,0,0.0,-999.0,81,0.00,,,0.00,open2300 v1.10,2013-02-07 04:36:00,
2013-02-06 20:51:00,49.3,43.7,30.04,North,0,0.0,-999.0,81,0.00,,,0.00,open2300 v1.10,2013-02-07 04:51:00,
2013-02-06 21:06:00,49.3,43.7,30.04,North,0,0.0,-999.0,81,0.00,,,0.00,open2300 v1.10,2013-02-07 05:06:00,
2013-02-06 21:21:00,49.3,43.7,30.04,North,0,0.0,-999.0,81,0.00,,,0.00,open2300 v1.10,2013-02-07 05:21:00,
2013-02-06 21:36:00,49.3,43.7,30.04,North,0,0.0,-999.0,81,0.00,,,0.00,open2300 v1.10,2013-02-07 05:36:00,
2013-02-06 21:51:00,49.1,43.5,30.04,North,0,0.0,-999.0,81,0.00,,,0.00,open2300 v1.10,2013-02-07 05:51:00,
2013-02-06 22:06:00,48.9,43.3,30.04,North,0,0.0,-999.0,81,0.00,,,0.00,open2300 v1.10,2013-02-07 06:06:00,
2013-02-06 22:21:00,48.9,43.3,30.04,North,0,0.0,-999.0,81,0.00,,,0.00,open2300 v1.10,2013-02-07 06:21:00,
2013-02-06 22:36:00,49.1,43.5,30.05,North,0,0.0,-999.0,81,0.00,,,0.00,open2300 v1.10,2013-02-07 06:36:00,
2013-02-06 22:51:00,49.1,43.5,30.05,North,0,0.0,-999.0,81,0.00,,,0.00,open2300 v1.10,2013-02-07 06:51:00,
2013-02-06 23:06:00,49.1,43.8,30.04,North,0,0.0,-999.0,82,0.00,,,0.00,open2300 v1.10,2013-02-07 07:06:00,
2013-02-06 23:21:00,48.9,43.6,30.04,North,0,0.0,-999.0,82,0.00,,,0.00,open2300 v1.10,2013-02-07 07:21:00,
2013-02-06 23:36:00,48.7,43.4,30.04,North,0,0.0,-999.0,82,0.00,,,0.00,open2300 v1.10,2013-02-07 07:36:00,
2013-02-06 23:51:00,48.7,43.4,30.04,North,0,0.0,-999.0,82,0.00,,,0.00,open2300 v1.10,2013-02-07 07:51:00,